Latest Weather Observations for Broome

IDW60801

Issued at 8:32 am WST Saturday 7 May 2016 (issued every 30 minutes, with the page automatically refreshed every 10 minutes)

About weather observations | Map of weather stations | Latest weather observations for WA | Other Formats
Station Details ID: 003003 Name: BROOME AIRPORT Lat: -17.95 Lon: 122.24 Height: 7.42 m
Data from the previous 72 hours. | See also: Recent months at Broome
Date/Time
WST
Temp
°C
App
Temp
°C
Dew
Point
Rel
Hum
%
Delta-T
°C
Wind Press
QNH
hPa
Press
MSL
hPa
Rain
since 9 am
mm
Dir
 
Spd
km/h
Gust
km/h
Spd
kts
Gust
kts
07/08:30am 27.0 30.8 24.7 87 1.6 NNE 13 17 7 9 1007.9 - 38.0
07/08:00am 26.9 31.5 24.7 88 1.5 N 9 11 5 6 1007.2 - 38.0
07/07:30am 26.0 29.8 24.0 89 1.4 N 11 15 6 8 1006.9 - 38.0
07/07:00am 25.3 29.1 23.5 90 1.2 N 9 15 5 8 1006.3 - 38.0
07/06:30am 24.7 28.0 23.2 91 1.0 N 11 17 6 9 1006.2 - 38.0
07/06:00am 24.5 27.5 23.3 93 0.8 N 13 20 7 11 1005.8 1005.7 38.0
07/05:30am 24.8 27.9 23.6 93 0.8 N 13 17 7 9 1005.3 - 38.0
07/05:00am 24.5 27.3 23.0 91 1.0 NNW 13 20 7 11 1005.0 - 38.0
07/04:30am 24.5 27.3 23.0 91 1.0 NNW 13 17 7 9 1005.0 - 38.0
07/04:00am 24.2 27.4 23.0 93 0.8 NNW 11 19 6 10 1004.9 - 38.0
07/03:30am 24.3 27.1 23.0 92 0.9 N 13 19 7 10 1005.1 - 38.0
07/03:00am 24.1 26.6 23.1 94 0.7 N 15 22 8 12 1005.6 1005.5 38.0
07/02:30am 24.0 26.8 23.0 94 0.7 N 13 20 7 11 1006.0 - 38.0
07/02:00am 24.0 26.4 23.0 94 0.7 N 15 20 8 11 1006.2 - 38.0
07/01:30am 23.8 26.5 22.9 95 0.6 N 13 19 7 10 1006.6 - 38.0
07/01:00am 23.8 26.7 23.1 96 0.5 N 13 20 7 11 1007.1 - 37.8
07/12:30am 24.0 27.0 23.4 96 0.4 NNE 13 19 7 10 1007.7 - 37.8
07/12:00am 24.0 27.4 23.4 96 0.4 N 11 17 6 9 1008.2 1008.1 37.8
 
Date/Time
WST
Temp
°C
App
Temp
°C
Dew
Point
Rel
Hum
%
Delta-T
°C
Wind Press
QNH
hPa
Press
MSL
hPa
Rain
since 9 am
mm
Dir
 
Spd
km/h
Gust
km/h
Spd
kts
Gust
kts
06/11:30pm 24.1 27.3 23.7 98 0.3 N 13 19 7 10 1008.9 - 37.4
06/11:11pm 24.2 27.1 23.9 98 0.2 N 15 22 8 12 1009.2 - 36.4
06/11:00pm 24.2 26.8 23.9 98 0.2 N 17 24 9 13 1009.1 - 35.6
06/10:30pm 23.7 28.1 23.4 98 0.2 NNW 6 7 3 4 1008.6 - 30.2
06/10:00pm 23.5 26.7 23.1 98 0.3 NNE 11 15 6 8 1008.6 - 26.2
06/09:30pm 24.3 26.2 23.4 95 0.6 NE 19 30 10 16 1009.0 - 18.2
06/09:00pm 25.0 30.9 24.1 95 0.6 CALM 0 0 0 0 1008.9 1008.8 14.0
06/08:30pm 25.2 31.0 23.9 92 0.9 CALM 0 0 0 0 1008.7 - 10.8
06/08:04pm 25.3 29.9 24.1 93 0.8 N 7 15 4 8 1008.8 - 9.4
06/08:03pm 25.4 29.5 23.9 91 1.0 N 9 20 5 11 1008.8 - 9.2
06/08:00pm 25.4 29.1 23.9 91 1.0 NNE 11 20 6 11 1008.9 - 9.0
06/07:30pm 25.7 31.7 24.3 92 1.0 CALM 0 0 0 0 1007.4 - 6.8
06/07:16pm 25.8 31.9 24.5 92 0.9 CALM 0 0 0 0 1007.6 - 5.8
06/07:05pm 25.7 31.7 24.3 92 1.0 CALM 0 0 0 0 1007.3 - 5.2
06/07:00pm 25.8 31.9 24.4 92 1.0 CALM 0 0 0 0 1007.6 - 5.0
06/06:30pm 26.3 32.6 24.7 91 1.1 CALM 0 0 0 0 1007.6 - 3.0
06/06:28pm 26.4 32.7 24.8 91 1.1 CALM 0 0 0 0 1007.6 - 2.8
06/06:00pm 26.9 33.2 24.7 88 1.5 CALM 0 0 0 0 1007.5 1007.4 2.0
06/05:30pm 27.2 33.3 24.5 85 1.9 CALM 0 6 0 3 1006.7 - 1.8
06/05:00pm 28.1 31.9 22.8 73 3.6 N 7 9 4 5 1006.2 - 1.6
06/04:30pm 28.4 32.6 23.1 73 3.6 N 6 9 3 5 1005.7 - 1.6
06/04:00pm 28.3 33.2 23.7 76 3.2 NNE 4 6 2 3 1005.5 - 1.6
06/03:30pm 28.8 32.3 22.8 70 4.1 NNE 9 13 5 7 1005.6 - 1.6
06/03:00pm 29.1 31.5 22.3 66 4.6 N 13 20 7 11 1005.6 1005.5 1.6
06/02:30pm 29.2 31.7 22.4 66 4.6 NE 13 20 7 11 1005.5 - 1.6
06/02:00pm 29.0 30.7 22.4 67 4.5 NE 17 20 9 11 1006.0 - 1.6
06/01:30pm 28.3 29.6 22.7 71 3.8 NNE 20 30 11 16 1006.6 - 1.6
06/01:00pm 28.4 30.5 23.1 73 3.6 NNE 17 24 9 13 1006.4 - 1.6
06/12:30pm 27.1 28.6 23.0 78 2.8 NE 20 32 11 17 1006.8 - 1.6
06/12:00pm 25.3 27.8 23.1 87 1.5 NE 15 20 8 11 1008.4 1008.3 1.6
06/11:30am 24.7 27.7 23.4 92 0.9 NNE 13 17 7 9 1009.8 - 1.6
06/11:00am 24.5 27.1 22.7 90 1.2 NNE 13 19 7 10 1010.6 - 1.2
06/10:30am 24.4 26.9 23.1 92 0.9 NNE 15 22 8 12 1010.9 - 0.8
06/10:00am 25.2 27.3 22.5 85 1.8 NNE 15 22 8 12 1011.3 - 0.0
06/09:30am 25.5 28.1 22.7 84 1.9 NE 13 17 7 9 1011.4 - 0.0
06/09:00am 25.6 27.9 22.8 84 1.9 NE 15 20 8 11 1011.1 1011.0 18.2
06/08:30am 25.7 28.4 23.4 87 1.6 NE 15 20 8 11 1010.6 - 18.2
06/08:00am 25.5 28.8 23.9 91 1.1 NE 13 17 7 9 1010.1 - 18.2
06/07:30am 25.4 28.8 24.1 92 0.9 NE 13 15 7 8 1009.9 - 18.0
06/07:00am 25.6 28.7 24.1 91 1.0 NE 15 20 8 11 1010.2 - 18.0
06/06:30am 25.6 28.4 24.3 92 0.9 ENE 17 24 9 13 1009.1 - 18.0
06/06:00am 25.4 30.2 24.5 95 0.6 ENE 7 9 4 5 1009.3 1009.2 18.0
06/05:30am 25.6 31.7 24.4 93 0.8 CALM 0 0 0 0 1009.4 - 18.0
06/05:00am 25.9 31.9 24.3 91 1.1 CALM 0 0 0 0 1009.4 - 17.6
06/04:30am 25.8 31.9 24.4 92 1.0 CALM 0 0 0 0 1009.2 - 17.4
06/04:00am 25.8 31.9 24.4 92 1.0 CALM 0 0 0 0 1009.3 - 17.2
06/03:30am 25.7 31.8 24.4 92 0.9 CALM 0 0 0 0 1009.3 - 17.2
06/03:00am 25.6 31.7 24.4 93 0.8 CALM 0 0 0 0 1009.5 1009.4 17.2
06/02:30am 25.6 31.8 24.6 94 0.7 CALM 0 0 0 0 1009.5 - 17.2
06/02:00am 25.3 31.4 24.4 95 0.6 CALM 0 0 0 0 1009.2 - 17.2
06/01:30am 25.4 31.7 24.7 96 0.5 CALM 0 0 0 0 1009.6 - 17.2
06/01:00am 25.8 32.0 24.6 93 0.8 CALM 0 0 0 0 1010.0 - 17.2
06/12:30am 25.8 32.0 24.6 93 0.8 CALM 0 0 0 0 1010.4 - 17.2
06/12:00am 25.7 32.0 24.8 95 0.6 CALM 0 0 0 0 1010.6 1010.5 17.2
 
Date/Time
WST
Temp
°C
App
Temp
°C
Dew
Point
Rel
Hum
%
Delta-T
°C
Wind Press
QNH
hPa
Press
MSL
hPa
Rain
since 9 am
mm
Dir
 
Spd
km/h
Gust
km/h
Spd
kts
Gust
kts
05/11:30pm 25.9 32.2 24.7 93 0.8 CALM 0 6 0 3 1010.8 - 17.2
05/11:00pm 26.0 31.4 25.1 95 0.6 NE 6 7 3 4 1010.8 - 17.2
05/10:30pm 26.1 31.7 25.4 96 0.5 NNE 6 9 3 5 1011.2 - 17.2
05/10:00pm 26.2 31.7 25.3 95 0.6 NNE 6 7 3 4 1011.4 - 17.2
05/09:30pm 26.2 31.6 25.2 94 0.7 E 6 7 3 4 1011.4 - 17.2
05/09:00pm 26.5 33.0 25.6 95 0.6 N 2 7 1 4 1011.3 - 17.2
05/08:30pm 26.9 33.9 25.9 94 0.7 CALM 0 0 0 0 1011.2 - 17.2
05/08:00pm 26.3 32.4 25.6 96 0.5 E 4 9 2 5 1010.8 - 17.2
05/07:30pm 26.8 33.4 25.2 91 1.1 CALM 0 0 0 0 1010.3 - 17.2
05/07:00pm 26.6 31.5 24.6 89 1.4 SSE 7 9 4 5 1010.0 - 17.2
05/06:30pm 26.2 32.2 24.2 89 1.4 CALM 0 0 0 0 1009.7 - 17.2
05/06:00pm 26.3 31.9 24.3 89 1.4 WNW 2 6 1 3 1009.8 1009.7 17.2
05/05:30pm 25.8 30.0 24.1 90 1.2 NNW 9 11 5 6 1009.7 - 17.2
05/05:00pm 25.8 28.7 23.9 89 1.3 NNW 15 20 8 11 1009.7 - 16.6
05/04:30pm 26.6 31.0 24.4 88 1.5 NW 9 15 5 8 1009.7 - 16.6
05/04:00pm 26.1 31.5 25.1 94 0.7 WNW 6 9 3 5 1009.3 - 16.6
05/03:48pm 25.7 31.2 25.3 98 0.3 WNW 6 7 3 4 1009.2 - 16.4
05/03:39pm 25.3 30.4 24.9 98 0.3 NW 7 11 4 6 1009.2 - 16.4
05/03:30pm 24.8 30.2 24.5 98 0.2 NNE 4 15 2 8 1009.6 - 14.6
05/03:18pm 24.3 24.8 24.0 98 0.2 N 28 46 15 25 1009.7 - 9.6
05/03:11pm 26.1 26.2 24.8 92 0.9 NNE 33 46 18 25 1009.3 - 2.0
05/03:07pm 29.4 32.1 25.6 80 2.7 N 22 35 12 19 1009.3 - 0.8
05/03:00pm 31.4 35.8 23.5 63 5.5 S 6 11 3 6 1008.8 1008.7 0.8
05/02:30pm 32.2 34.9 23.4 59 6.1 SSE 15 20 8 11 1008.6 - 0.6
05/02:00pm 31.7 34.5 24.3 65 5.2 SSE 17 24 9 13 1008.4 - 0.6
05/01:30pm 30.9 33.9 24.0 66 4.8 SSE 15 20 8 11 1009.1 - 0.6
05/01:00pm 31.7 35.0 23.8 63 5.5 SSE 13 19 7 10 1009.4 - 0.6
05/12:30pm 30.9 33.6 22.9 62 5.5 S 13 19 7 10 1009.8 - 0.4
05/12:00pm 31.1 34.2 23.6 64 5.2 S 13 19 7 10 1010.4 1010.3 0.4
05/11:30am 30.0 33.4 23.3 67 4.6 S 11 17 6 9 1011.2 - 0.4
05/11:00am 29.3 33.1 24.0 73 3.7 S 11 17 6 9 1011.8 - 0.4
05/10:30am 28.9 33.2 22.6 69 4.3 SE 4 7 2 4 1012.3 - 0.4
05/10:00am 28.0 31.8 22.4 71 3.8 ESE 6 9 3 5 1012.9 - 0.4
05/09:30am 24.6 28.0 21.7 84 1.9 S 6 9 3 5 1013.4 - 0.4
05/09:17am 23.5 27.0 21.8 90 1.1 WSW 6 9 3 5 1013.2 - 0.4
05/09:07am 23.0 26.0 21.9 93 0.7 SW 9 15 5 8 1013.0 - 0.4
05/09:01am 23.1 24.1 21.7 92 0.9 WSW 19 37 10 20 1013.0 - 0.2
05/09:00am 23.0 24.0 21.8 93 0.8 WSW 19 - 10 - - 1012.9 25.0
05/08:36am 24.2 24.3 23.9 98 0.2 NNW 30 46 16 25 1013.7 - 8.2
05/08:31am 27.1 31.3 24.1 84 2.1 E 9 24 5 13 1013.1 - 1.2
05/08:24am 28.7 31.9 23.1 71 3.8 SE 11 15 6 8 1012.4 - 0.2
05/08:00am 28.6 33.7 25.0 81 2.5 SE 7 11 4 6 1012.1 - 0.2
05/07:30am 27.4 32.3 24.4 84 2.1 ENE 6 7 3 4 1012.0 - 0.2
05/07:00am 26.8 31.4 24.2 86 1.8 NE 7 9 4 5 1011.7 - 0.2
05/06:30am 25.7 30.5 24.2 91 1.0 NE 6 7 3 4 1011.3 - 0.2
05/06:00am 25.6 31.1 24.1 91 1.0 ENE 2 6 1 3 1011.2 1011.1 0.2
05/05:30am 25.6 31.2 24.3 92 0.9 NE 2 6 1 3 1010.7 - 0.2
05/05:00am 25.7 31.5 24.0 90 1.2 CALM 0 0 0 0 1010.6 - 0.2
05/04:30am 25.8 31.8 24.2 91 1.1 CALM 0 0 0 0 1010.7 - 0.2
05/04:00am 25.6 31.4 24.0 91 1.1 CALM 0 0 0 0 1010.6 - 0.2
05/03:30am 25.6 31.4 24.0 91 1.1 CALM 0 0 0 0 1010.3 - 0.2
05/03:00am 26.2 31.0 24.2 89 1.4 N 6 9 3 5 1010.3 1010.2 0.2
05/02:30am 26.7 31.5 24.5 88 1.5 NNW 7 9 4 5 1010.5 - 0.2
05/02:00am 26.2 31.0 24.5 90 1.2 N 7 9 4 5 1010.9 - 0.2
05/01:30am 25.7 30.2 24.0 90 1.2 N 7 9 4 5 1010.8 - 0.2
05/01:00am 25.7 30.7 23.8 89 1.3 NNE 4 6 2 3 1010.9 - 0.2
05/12:30am 25.7 30.1 23.8 89 1.3 NNE 7 9 4 5 1011.0 - 0.2
05/12:00am 25.8 30.1 23.6 88 1.5 NNE 7 9 4 5 1011.1 1011.0 0.2
 
Date/Time
WST
Temp
°C
App
Temp
°C
Dew
Point
Rel
Hum
%
Delta-T
°C
Wind Press
QNH
hPa
Press
MSL
hPa
Rain
since 9 am
mm
Dir
 
Spd
km/h
Gust
km/h
Spd
kts
Gust
kts
04/11:30pm 26.6 31.7 24.1 86 1.7 N 4 9 2 5 1011.3 - 0.2
04/11:00pm 27.6 33.1 24.7 84 2.0 NW 4 7 2 4 1011.6 - 0.2
04/10:30pm 29.0 34.1 24.9 78 2.9 WNW 7 9 4 5 1011.5 - 0.2
04/10:00pm 29.1 34.4 25.3 80 2.7 WNW 7 9 4 5 1011.5 - 0.2
04/09:30pm 29.2 34.6 25.4 80 2.7 NW 7 11 4 6 1011.5 - 0.2
04/09:00pm 29.4 34.5 25.6 80 2.7 WNW 9 13 5 7 1011.5 1011.4 0.2
04/08:30pm 29.4 34.6 25.7 80 2.6 WNW 9 11 5 6 1011.5 - 0.2
04/08:00pm 29.6 34.7 25.5 78 2.9 NW 9 11 5 6 1011.3 - 0.2
04/07:30pm 29.6 34.3 25.6 79 2.8 NW 11 17 6 9 1010.9 - 0.2
04/07:00pm 29.7 34.2 25.2 77 3.2 NW 11 17 6 9 1010.6 - 0.2
04/06:30pm 29.8 34.0 24.7 74 3.6 NW 11 17 6 9 1010.3 - 0.2
04/06:00pm 29.8 34.2 25.1 76 3.3 NNW 11 17 6 9 1010.1 1010.0 0.0
04/05:30pm 30.1 34.1 25.1 74 3.5 NW 13 19 7 10 1009.8 - 0.0
04/05:00pm 30.4 33.5 24.8 72 3.9 WNW 17 22 9 12 1009.4 - 0.0
04/04:30pm 31.2 33.3 23.7 64 5.2 WNW 19 24 10 13 1008.8 - 0.0
04/04:00pm 31.4 33.2 23.6 63 5.4 W 20 30 11 16 1008.4 - 0.0
04/03:30pm 31.9 33.9 23.9 62 5.6 W 20 30 11 16 1008.3 - 0.0
04/03:00pm 31.8 34.0 24.2 64 5.3 W 20 26 11 14 1008.7 1008.6 0.0
04/02:30pm 31.6 34.2 24.6 66 4.9 W 19 26 10 14 1008.8 - 0.0
04/02:00pm 31.9 34.1 23.9 62 5.6 WNW 19 28 10 15 1008.8 - 0.0
04/01:30pm 32.1 34.0 23.8 61 5.8 WNW 20 28 11 15 1008.9 - 0.0
04/01:00pm 32.8 34.1 23.4 57 6.5 W 22 30 12 16 1009.2 - 0.0
04/12:30pm 32.8 33.7 23.4 57 6.5 W 24 30 13 16 1009.5 - 0.0
04/12:00pm 32.4 32.9 22.0 54 7.1 WNW 22 32 12 17 1009.9 1009.8 0.0
04/11:30am 32.2 32.2 21.0 51 7.5 WNW 22 30 12 16 1010.2 - 0.0
04/11:00am 31.8 31.8 20.2 50 7.7 NW 20 28 11 15 1010.6 - 0.0
04/10:30am 32.0 32.2 19.3 47 8.3 NW 17 24 9 13 1011.0 - 0.0
04/10:00am 32.9 33.8 18.4 42 9.4 NW 11 19 6 10 1011.2 - 0.0
04/09:30am 32.4 34.1 19.3 46 8.6 ESE 9 13 5 7 1011.4 - 0.0
04/09:00am 31.6 32.9 18.5 45 8.5 ENE 9 15 5 8 1011.5 1011.4 0.0

Other Formats:

Comma delimited format used in spreadsheet applications
http://www.bom.gov.au/fwo/IDW60801/IDW60801.94203.axf

JavaScript Object Notation format (JSON) in row-major order
http://www.bom.gov.au/fwo/IDW60801/IDW60801.94203.json